Time;durP1;ratioP1;P1;durP2;ratioP2;P2;SDS_P1;SDS_P2;PMS_P1;PMS_P2;Temp;Humidity;BMP_temperature;BMP_pressure;BME280_temperature;BME280_humidity;BME280_pressure;Samples;Min_cycle;Max_cycle;Signal;HPM_P1;HPM_P2
2022/10/31 00:02:01;;;;;;;8.43;2.35;;;;;15.00;94622.00;;;;7397377;19;20649;-78
2022/10/31 00:04:35;;;;;;;9.50;2.78;;;;;14.80;94623.00;;;;7390944;19;20156;-80
2022/10/31 00:07:09;;;;;;;3.58;2.22;;;;;14.70;94618.00;;;;7396094;19;20151;-76
2022/10/31 00:09:36;;;;;;;7.30;3.05;;;;;14.80;94625.00;;;;7397883;19;20156;-80
2022/10/31 00:12:04;;;;;;;7.22;2.92;;;;;14.90;94618.00;;;;7397145;19;20175;-80
2022/10/31 00:14:40;;;;;;;4.63;2.33;;;;;14.60;94626.00;;;;7397021;19;20231;-78
2022/10/31 00:17:07;;;;;;;6.05;2.42;;;;;14.60;94623.00;;;;7395216;19;20152;-80
2022/10/31 00:19:35;;;;;;;8.65;2.50;;;;;14.90;94618.00;;;;7395228;19;20167;-80
2022/10/31 00:22:08;;;;;;;5.60;2.30;;;;;15.00;94617.00;;;;7399073;19;20142;-79
2022/10/31 00:24:39;;;;;;;7.65;2.45;;;;;14.90;94607.00;;;;7390558;19;20482;-78
2022/10/31 00:27:11;;;;;;;5.38;2.42;;;;;14.70;94616.00;;;;7394013;19;20573;-79
2022/10/31 00:29:44;;;;;;;6.22;2.33;;;;;14.50;94606.00;;;;7396137;19;20124;-79
2022/10/31 00:32:12;;;;;;;5.28;2.15;;;;;14.40;94613.00;;;;7398237;19;20157;-79
2022/10/31 00:34:41;;;;;;;6.50;2.70;;;;;14.20;94615.00;;;;7394327;19;20142;-79
2022/10/31 00:37:16;;;;;;;8.55;2.60;;;;;14.20;94612.00;;;;7396083;19;20128;-78
2022/10/31 00:39:45;;;;;;;7.82;2.28;;;;;14.30;94614.00;;;;7395882;19;20151;-78
2022/10/31 00:42:12;;;;;;;7.53;2.53;;;;;14.50;94614.00;;;;7395773;19;20223;-79
2022/10/31 00:44:46;;;;;;;8.07;2.55;;;;;14.40;94608.00;;;;7392914;19;20225;-79
2022/10/31 00:47:13;;;;;;;8.40;2.47;;;;;14.20;94621.00;;;;7394945;19;20624;-80
2022/10/31 00:49:40;;;;;;;9.00;2.38;;;;;14.30;94618.00;;;;7393932;19;20152;-79
2022/10/31 00:52:17;;;;;;;5.35;1.90;;;;;14.20;94607.00;;;;7397939;19;20611;-79
2022/10/31 00:54:45;;;;;;;9.68;2.30;;;;;14.10;94614.00;;;;7391917;19;20161;-77
2022/10/31 00:57:12;;;;;;;6.25;1.90;;;;;13.90;94611.00;;;;7394095;19;20149;-80
2022/10/31 00:59:46;;;;;;;6.90;2.13;;;;;14.00;94608.00;;;;7393816;19;20171;-77
2022/10/31 01:02:13;;;;;;;6.50;2.20;;;;;14.00;94607.00;;;;7396216;19;20152;-77
2022/10/31 01:04:41;;;;;;;8.30;2.10;;;;;13.90;94603.00;;;;7389675;19;20184;-79
2022/10/31 01:07:21;;;;;;;7.25;2.42;;;;;13.70;94605.00;;;;7393556;19;20153;-77
2022/10/31 01:09:51;;;;;;;7.70;2.30;;;;;13.60;94600.00;;;;7395443;19;20187;-78
2022/10/31 01:12:25;;;;;;;8.10;2.10;;;;;13.40;94604.00;;;;7390717;19;20668;-77
2022/10/31 01:14:53;;;;;;;8.00;2.28;;;;;13.20;94601.00;;;;7393047;19;20140;-79
2022/10/31 01:17:20;;;;;;;6.55;2.35;;;;;13.00;94602.00;;;;7394080;19;20155;-76
2022/10/31 01:19:54;;;;;;;7.47;2.38;;;;;12.70;94602.00;;;;7396035;19;20135;-78
2022/10/31 01:22:24;;;;;;;6.47;2.08;;;;;12.60;94598.00;;;;7392327;19;20143;-77
2022/10/31 01:24:51;;;;;;;5.82;2.00;;;;;12.60;94604.00;;;;7389612;19;20659;-76
2022/10/31 01:27:25;;;;;;;5.07;2.30;;;;;12.80;94596.00;;;;7393737;19;20158;-79
2022/10/31 01:29:53;;;;;;;8.30;2.45;;;;;12.50;94604.00;;;;7394641;19;20605;-77
2022/10/31 01:32:23;;;;;;;6.38;2.30;;;;;12.40;94605.00;;;;7391266;19;20144;-77
2022/10/31 01:34:57;;;;;;;7.68;2.10;;;;;12.70;94604.00;;;;7391869;19;20226;-79
2022/10/31 01:37:26;;;;;;;4.55;2.30;;;;;12.70;94602.00;;;;7394056;19;20137;-79
2022/10/31 01:39:56;;;;;;;5.47;2.10;;;;;12.70;94606.00;;;;7395125;19;20148;-79
2022/10/31 01:42:29;;;;;;;7.25;2.35;;;;;12.80;94594.00;;;;7389621;19;20158;-80
2022/10/31 01:45:00;;;;;;;5.55;2.40;;;;;12.90;94604.00;;;;7390902;19;20506;-79
2022/10/31 01:47:34;;;;;;;9.10;2.70;;;;;13.00;94597.00;;;;7393256;19;20145;-77
2022/10/31 01:50:23;;;;;;;6.95;2.22;;;;;13.10;94601.00;;;;7396403;19;20156;-79
2022/10/31 01:52:53;;;;;;;7.32;2.10;;;;;12.90;94589.00;;;;7391392;19;20639;-79
2022/10/31 01:55:33;;;;;;;5.45;2.67;;;;;12.60;94588.00;;;;7390922;19;20204;-77
2022/10/31 01:58:18;;;;;;;7.50;2.30;;;;;12.30;94592.00;;;;7393124;19;20199;-78
2022/10/31 02:01:01;;;;;;;7.82;2.13;;;;;12.50;94591.00;;;;7393769;19;20140;-79
2022/10/31 02:03:41;;;;;;;7.25;2.15;;;;;12.60;94593.00;;;;7393495;19;20519;-77
2022/10/31 02:06:36;;;;;;;4.20;1.80;;;;;12.40;94586.00;;;;7392419;19;20497;-78
2022/10/31 02:09:07;;;;;;;3.70;2.22;;;;;12.30;94592.00;;;;7392413;19;20129;-79
2022/10/31 02:11:43;;;;;;;7.68;2.17;;;;;12.10;94596.00;;;;7389868;19;20615;-79
2022/10/31 02:14:11;;;;;;;4.53;2.17;;;;;12.00;94605.00;;;;7394299;19;20159;-78
2022/10/31 02:16:39;;;;;;;5.75;1.90;;;;;11.70;94605.00;;;;7389593;19;20137;-79
2022/10/31 02:19:19;;;;;;;6.32;2.25;;;;;11.60;94601.00;;;;7390999;19;20156;-78
2022/10/31 02:22:02;;;;;;;6.38;2.25;;;;;11.70;94603.00;;;;7392861;19;20188;-78
2022/10/31 02:24:51;;;;;;;5.28;2.15;;;;;11.80;94601.00;;;;7391144;19;20145;-78
2022/10/31 02:27:51;;;;;;;8.70;2.25;;;;;11.70;94590.00;;;;7390817;19;20140;-79
2022/10/31 02:30:32;;;;;;;7.32;2.92;;;;;11.80;94596.00;;;;7391722;19;20144;-78
2022/10/31 02:33:22;;;;;;;5.55;2.08;;;;;11.90;94594.00;;;;7390247;19;20140;-81
2022/10/31 02:36:16;;;;;;;9.48;2.40;;;;;11.90;94595.00;;;;7392133;19;20157;-78
2022/10/31 02:38:55;;;;;;;3.80;2.13;;;;;11.80;94590.00;;;;7388538;19;20137;-78
2022/10/31 02:41:41;;;;;;;7.60;2.55;;;;;11.70;94599.00;;;;7390762;19;20168;-80
2022/10/31 02:44:26;;;;;;;10.52;2.40;;;;;11.70;94587.00;;;;7392516;19;20755;-80
2022/10/31 02:47:14;;;;;;;5.25;2.35;;;;;11.70;94590.00;;;;7391523;19;20164;-80
2022/10/31 02:50:16;;;;;;;6.70;2.30;;;;;11.60;94590.00;;;;7392038;19;20152;-80
2022/10/31 02:52:53;;;;;;;8.50;2.10;;;;;11.60;94589.00;;;;7389699;19;20128;-79
2022/10/31 02:55:25;;;;;;;5.55;2.50;;;;;11.50;94594.00;;;;7391801;19;20147;-81
2022/10/31 02:58:11;;;;;;;10.68;2.63;;;;;11.30;94587.00;;;;7392504;19;20141;-81
2022/10/31 03:00:53;;;;;;;6.30;2.40;;;;;11.30;94587.00;;;;7389850;19;20164;-79
2022/10/31 03:04:04;;;;;;;4.32;2.42;;;;;11.30;94584.00;;;;7392647;19;20167;-80
2022/10/31 03:07:13;;;;;;;8.43;2.47;;;;;11.30;94590.00;;;;7393832;19;20125;-80
2022/10/31 03:10:16;;;;;;;8.88;2.35;;;;;11.40;94571.00;;;;7397676;19;20156;-81
2022/10/31 03:13:14;;;;;;;9.27;2.30;;;;;11.40;94581.00;;;;7395890;19;20160;-80
2022/10/31 03:16:13;;;;;;;8.55;2.03;;;;;11.40;94575.00;;;;7397368;19;20496;-79
2022/10/31 03:18:53;;;;;;;5.55;2.30;;;;;11.30;94572.00;;;;7400152;19;20137;-81
2022/10/31 03:21:42;;;;;;;3.80;2.30;;;;;11.20;94580.00;;;;7399284;19;20500;-79
2022/10/31 03:24:13;;;;;;;7.95;2.58;;;;;11.20;94578.00;;;;7397285;19;20169;-80
2022/10/31 03:26:59;;;;;;;6.15;2.10;;;;;11.20;94580.00;;;;7391603;19;20156;-80
2022/10/31 03:29:30;;;;;;;5.50;2.20;;;;;11.30;94575.00;;;;7396170;19;20151;-80
2022/10/31 03:32:10;;;;;;;5.07;2.40;;;;;11.30;94585.00;;;;7401267;19;20475;-79
2022/10/31 03:34:39;;;;;;;6.35;2.75;;;;;11.30;94579.00;;;;7399397;19;20506;-79
2022/10/31 03:37:17;;;;;;;4.60;2.90;;;;;11.30;94573.00;;;;7397200;19;20493;-82
2022/10/31 03:39:48;;;;;;;6.90;2.72;;;;;11.20;94583.00;;;;7400050;19;20157;-81
2022/10/31 03:42:25;;;;;;;10.07;2.85;;;;;11.20;94584.00;;;;7397226;19;20160;-81
2022/10/31 03:45:15;;;;;;;6.30;2.30;;;;;11.10;94577.00;;;;7393886;19;20141;-82
2022/10/31 03:47:51;;;;;;;6.97;2.90;;;;;11.40;94572.00;;;;7398967;19;20513;-81
2022/10/31 03:50:19;;;;;;;8.20;2.78;;;;;11.40;94579.00;;;;7397912;19;20148;-81
2022/10/31 03:53:09;;;;;;;8.65;2.63;;;;;11.40;94569.00;;;;7397225;19;20161;-81
2022/10/31 03:55:59;;;;;;;8.23;2.30;;;;;11.30;94573.00;;;;7401912;19;20125;-81
2022/10/31 03:58:32;;;;;;;6.18;2.25;;;;;11.40;94566.00;;;;7398236;19;20136;-81
2022/10/31 04:01:09;;;;;;;6.75;2.40;;;;;11.50;94560.00;;;;7398932;19;20133;-80
2022/10/31 04:03:51;;;;;;;11.27;2.83;;;;;11.50;94572.00;;;;7399338;19;20587;-80
2022/10/31 04:06:27;;;;;;;5.90;2.83;;;;;11.60;94566.00;;;;7397135;19;20484;-81
2022/10/31 04:09:00;;;;;;;10.32;3.00;;;;;11.50;94561.00;;;;7396575;19;20607;-81
2022/10/31 04:11:40;;;;;;;7.47;2.92;;;;;11.70;94568.00;;;;7396861;19;20125;-79
2022/10/31 04:14:10;;;;;;;5.65;2.47;;;;;11.80;94561.00;;;;7397344;19;20159;-81
2022/10/31 04:16:45;;;;;;;10.43;2.47;;;;;12.00;94554.00;;;;7394115;19;20149;-79
2022/10/31 04:19:14;;;;;;;8.88;2.65;;;;;12.10;94563.00;;;;7399211;19;20592;-81
2022/10/31 04:21:44;;;;;;;7.07;2.90;;;;;12.20;94554.00;;;;7398561;19;20139;-78
2022/10/31 04:24:23;;;;;;;5.43;2.42;;;;;12.20;94563.00;;;;7401551;19;20729;-78
2022/10/31 04:26:50;;;;;;;9.48;2.88;;;;;12.30;94560.00;;;;7392612;19;20216;-79
2022/10/31 04:29:17;;;;;;;10.07;3.15;;;;;12.20;94554.00;;;;7393275;19;20183;-79
2022/10/31 04:31:51;;;;;;;10.52;3.13;;;;;12.30;94552.00;;;;7396753;19;20155;-80
2022/10/31 04:34:19;;;;;;;7.15;3.25;;;;;12.20;94551.00;;;;7396387;19;20160;-80
2022/10/31 04:36:46;;;;;;;5.25;2.83;;;;;12.10;94548.00;;;;7389351;19;20152;-80
2022/10/31 04:39:22;;;;;;;10.20;2.92;;;;;12.00;94550.00;;;;7396545;19;20133;-80
2022/10/31 04:41:53;;;;;;;11.93;3.10;;;;;11.90;94559.00;;;;7397540;19;20149;-80
2022/10/31 04:44:20;;;;;;;4.70;2.60;;;;;11.90;94553.00;;;;7394849;19;20129;-79
2022/10/31 04:46:54;;;;;;;5.95;3.00;;;;;11.90;94542.00;;;;7393260;19;20160;-79
2022/10/31 04:49:21;;;;;;;5.97;3.00;;;;;11.90;94549.00;;;;7395353;19;20148;-80
2022/10/31 04:51:48;;;;;;;8.55;2.58;;;;;11.90;94539.00;;;;7394806;19;20141;-79
2022/10/31 04:54:23;;;;;;;10.82;3.13;;;;;11.80;94541.00;;;;7394526;19;20132;-77
2022/10/31 04:56:52;;;;;;;12.38;3.00;;;;;11.70;94540.00;;;;7394936;19;20133;-79
2022/10/31 04:59:20;;;;;;;8.63;2.88;;;;;11.70;94537.00;;;;7392331;19;20162;-77
2022/10/31 05:01:54;;;;;;;9.27;3.17;;;;;11.80;94530.00;;;;7393858;19;20155;-80
2022/10/31 05:04:35;;;;;;;9.80;3.50;;;;;11.60;94537.00;;;;7392178;19;20558;-79
2022/10/31 05:07:10;;;;;;;9.95;3.20;;;;;11.50;94537.00;;;;7391817;19;20633;-80
2022/10/31 05:09:37;;;;;;;8.50;3.40;;;;;11.40;94534.00;;;;7393411;19;20149;-81
2022/10/31 05:12:04;;;;;;;8.73;2.88;;;;;11.60;94530.00;;;;7395810;19;20156;-79
2022/10/31 05:14:39;;;;;;;8.60;3.25;;;;;11.40;94533.00;;;;7393335;19;20131;-80
2022/10/31 05:17:09;;;;;;;8.48;3.65;;;;;11.40;94532.00;;;;7393994;19;20292;-79
2022/10/31 05:19:37;;;;;;;6.10;3.30;;;;;11.40;94527.00;;;;7392833;19;20225;-79
2022/10/31 05:22:11;;;;;;;6.18;3.10;;;;;11.50;94532.00;;;;7392744;19;20156;-80
2022/10/31 05:24:38;;;;;;;8.98;3.70;;;;;11.60;94529.00;;;;7390214;19;20156;-80
2022/10/31 05:27:06;;;;;;;11.63;3.33;;;;;11.50;94528.00;;;;7389955;19;20157;-80
2022/10/31 05:29:40;;;;;;;9.40;2.78;;;;;11.50;94532.00;;;;7394418;19;20478;-81
2022/10/31 05:32:07;;;;;;;8.85;3.17;;;;;11.60;94535.00;;;;7394693;19;20212;-81
2022/10/31 05:34:35;;;;;;;9.23;3.05;;;;;11.60;94529.00;;;;7390626;19;20141;-79
2022/10/31 05:37:09;;;;;;;10.25;2.90;;;;;11.50;94524.00;;;;7394762;19;20506;-81
2022/10/31 05:39:41;;;;;;;5.95;3.00;;;;;11.40;94527.00;;;;7391468;19;20136;-81
2022/10/31 05:42:08;;;;;;;5.85;2.63;;;;;11.40;94519.00;;;;7393297;19;20144;-78
2022/10/31 05:44:42;;;;;;;9.35;3.20;;;;;11.40;94526.00;;;;7391063;19;20595;-80
2022/10/31 05:47:09;;;;;;;10.68;3.00;;;;;11.40;94522.00;;;;7391461;19;20144;-81
2022/10/31 05:49:37;;;;;;;12.80;2.95;;;;;11.30;94518.00;;;;7396405;19;20136;-79
2022/10/31 05:52:14;;;;;;;7.90;3.00;;;;;11.50;94515.00;;;;7392320;19;20120;-81
2022/10/31 05:54:41;;;;;;;6.22;2.70;;;;;11.60;94519.00;;;;7390508;19;20135;-82
2022/10/31 05:57:08;;;;;;;6.20;2.47;;;;;11.60;94521.00;;;;7393536;19;20129;-79
2022/10/31 05:59:42;;;;;;;10.50;2.88;;;;;11.60;94520.00;;;;7392306;19;20152;-80
2022/10/31 06:02:09;;;;;;;5.93;2.72;;;;;11.50;94511.00;;;;7391906;19;21221;-80
2022/10/31 06:04:37;;;;;;;7.32;3.33;;;;;11.50;94513.00;;;;7390030;19;20149;-78
2022/10/31 06:07:18;;;;;;;12.13;3.35;;;;;11.60;94511.00;;;;7391442;19;20209;-79
2022/10/31 06:09:45;;;;;;;9.27;2.90;;;;;11.70;94506.00;;;;7393382;19;20168;-80
2022/10/31 06:12:19;;;;;;;9.00;2.65;;;;;11.70;94504.00;;;;7394492;19;20139;-78
2022/10/31 06:14:46;;;;;;;10.57;2.53;;;;;11.60;94507.00;;;;7389198;19;20155;-80
2022/10/31 06:17:14;;;;;;;5.70;2.88;;;;;11.60;94504.00;;;;7391086;19;20153;-78
2022/10/31 06:19:48;;;;;;;4.35;2.65;;;;;11.80;94505.00;;;;7384851;19;20152;-76
2022/10/31 06:22:36;;;;;;;7.55;3.08;;;;;11.70;94506.00;;;;7389574;19;20200;-76
2022/10/31 06:25:10;;;;;;;3.97;2.30;;;;;11.80;94494.00;;;;7391390;19;20579;-77
2022/10/31 06:27:37;;;;;;;7.05;2.67;;;;;11.90;94499.00;;;;7390541;19;20183;-76
2022/10/31 06:30:05;;;;;;;5.03;2.83;;;;;11.90;94492.00;;;;7393800;19;20487;-75
2022/10/31 06:32:41;;;;;;;4.15;1.85;;;;;12.00;94489.00;;;;7391342;19;20151;-77
2022/10/31 06:35:15;;;;;;;4.68;2.38;;;;;12.20;94491.00;;;;7383837;19;20180;-77
2022/10/31 06:37:43;;;;;;;9.20;2.65;;;;;12.30;94502.00;;;;7382578;19;20136;-75
2022/10/31 06:40:16;;;;;;;5.20;2.65;;;;;12.30;94497.00;;;;7394547;19;20125;-75
2022/10/31 06:42:46;;;;;;;5.10;2.13;;;;;12.40;94491.00;;;;7395880;19;20157;-80
2022/10/31 06:45:14;;;;;;;4.68;2.03;;;;;12.50;94488.00;;;;7400596;19;20641;-78
2022/10/31 06:47:53;;;;;;;5.60;2.33;;;;;12.60;94486.00;;;;7384766;19;20147;-78
2022/10/31 06:50:40;;;;;;;11.18;2.67;;;;;12.80;94501.00;;;;7387895;19;20144;-78
2022/10/31 06:53:15;;;;;;;7.50;2.42;;;;;12.90;94493.00;;;;7399422;19;20557;-79
2022/10/31 06:55:43;;;;;;;6.80;2.55;;;;;13.00;94499.00;;;;7397964;19;20596;-76
2022/10/31 06:58:11;;;;;;;5.97;2.13;;;;;13.10;94502.00;;;;7401745;19;20132;-79
2022/10/31 07:00:47;;;;;;;6.60;2.20;;;;;13.10;94497.00;;;;7391783;19;20124;-77
2022/10/31 07:03:16;;;;;;;8.05;2.92;;;;;13.40;94497.00;;;;7400372;19;20548;-77
2022/10/31 07:05:44;;;;;;;6.22;2.00;;;;;13.50;94504.00;;;;7396784;19;20193;-76
2022/10/31 07:08:18;;;;;;;5.57;2.53;;;;;13.60;94504.00;;;;7394085;19;20151;-79
2022/10/31 07:10:52;;;;;;;9.93;2.30;;;;;13.60;94502.00;;;;7397857;19;20160;-80
2022/10/31 07:13:26;;;;;;;5.47;2.47;;;;;13.60;94500.00;;;;7399375;19;20132;-78
2022/10/31 07:16:00;;;;;;;3.78;2.42;;;;;13.80;94502.00;;;;7398835;19;20532;-78
2022/10/31 07:18:35;;;;;;;6.20;2.70;;;;;13.90;94505.00;;;;7397077;19;20504;-79
2022/10/31 07:21:03;;;;;;;7.50;2.50;;;;;14.10;94510.00;;;;7397492;19;20124;-78
2022/10/31 07:23:31;;;;;;;6.68;2.95;;;;;14.50;94506.00;;;;7397846;19;20137;-76
2022/10/31 07:26:05;;;;;;;6.30;2.53;;;;;14.70;94510.00;;;;7400852;19;20185;-76
2022/10/31 07:28:33;;;;;;;5.97;3.15;;;;;14.70;94506.00;;;;7392710;19;20578;-76
2022/10/31 07:31:05;;;;;;;10.80;2.90;;;;;15.00;94518.00;;;;7395867;19;20153;-75
2022/10/31 07:33:40;;;;;;;8.93;2.50;;;;;15.20;94508.00;;;;7399753;19;20637;-76
2022/10/31 07:36:08;;;;;;;8.50;3.28;;;;;15.40;94512.00;;;;7399458;19;20512;-76
2022/10/31 07:38:35;;;;;;;6.90;2.80;;;;;15.80;94505.00;;;;7402111;19;20647;-76
2022/10/31 07:41:11;;;;;;;5.68;2.50;;;;;16.00;94510.00;;;;7399131;19;20642;-76
2022/10/31 07:43:42;;;;;;;13.88;3.25;;;;;15.90;94516.00;;;;7398882;19;20159;-76
2022/10/31 07:46:11;;;;;;;9.70;2.70;;;;;15.90;94517.00;;;;7401349;19;20140;-75
2022/10/31 07:48:45;;;;;;;6.30;2.28;;;;;16.10;94517.00;;;;7397295;19;20140;-76
2022/10/31 07:51:13;;;;;;;7.78;2.40;;;;;16.10;94515.00;;;;7391935;19;20148;-75
2022/10/31 07:53:40;;;;;;;5.68;2.20;;;;;16.40;94513.00;;;;7396069;19;20165;-76
2022/10/31 07:56:15;;;;;;;4.60;2.00;;;;;16.40;94528.00;;;;7394791;19;20519;-74
2022/10/31 07:58:43;;;;;;;8.40;2.53;;;;;16.60;94517.00;;;;7395369;19;20153;-76
2022/10/31 08:01:14;;;;;;;11.52;2.88;;;;;16.70;94523.00;;;;7393103;19;20152;-75
2022/10/31 08:03:55;;;;;;;6.22;2.22;;;;;16.80;94526.00;;;;7395009;19;20133;-75
2022/10/31 08:06:29;;;;;;;7.30;2.95;;;;;17.00;94519.00;;;;7393857;19;20480;-76
2022/10/31 08:09:04;;;;;;;7.57;2.30;;;;;17.20;94510.00;;;;7396683;19;20148;-75
2022/10/31 08:11:32;;;;;;;6.57;2.55;;;;;16.90;94515.00;;;;7393494;19;20566;-75
2022/10/31 08:13:59;;;;;;;4.50;2.20;;;;;17.30;94511.00;;;;7395678;19;20611;-75
2022/10/31 08:16:34;;;;;;;10.32;2.55;;;;;17.60;94509.00;;;;7392287;19;20536;-74
2022/10/31 08:19:02;;;;;;;7.15;2.60;;;;;18.20;94506.00;;;;7389802;19;20167;-75
2022/10/31 08:21:30;;;;;;;6.30;2.40;;;;;18.40;94501.00;;;;7396763;19;20141;-75
2022/10/31 08:24:05;;;;;;;5.43;2.20;;;;;18.80;94503.00;;;;7393069;19;20638;-76
2022/10/31 08:26:35;;;;;;;6.38;2.30;;;;;19.10;94495.00;;;;7391569;19;20212;-75
2022/10/31 08:29:03;;;;;;;6.68;2.67;;;;;19.10;94498.00;;;;7393379;19;20185;-75
2022/10/31 08:31:37;;;;;;;6.75;2.70;;;;;19.40;94489.00;;;;7393371;19;20155;-76
2022/10/31 08:34:09;;;;;;;8.25;2.55;;;;;19.60;94489.00;;;;7396185;19;20515;-76
2022/10/31 08:36:37;;;;;;;13.32;2.72;;;;;19.70;94486.00;;;;7396396;19;20147;-76
2022/10/31 08:39:10;;;;;;;5.97;2.30;;;;;20.10;94487.00;;;;7395423;19;20480;-76
2022/10/31 08:41:38;;;;;;;7.72;2.95;;;;;20.30;94486.00;;;;7392002;19;20132;-77
2022/10/31 08:44:05;;;;;;;6.60;2.63;;;;;20.60;94477.00;;;;7393198;19;20587;-76
2022/10/31 08:46:39;;;;;;;8.35;2.50;;;;;20.50;94475.00;;;;7396006;19;20133;-76
2022/10/31 08:49:07;;;;;;;10.07;2.35;;;;;20.50;94479.00;;;;7393392;19;20133;-78
2022/10/31 08:51:34;;;;;;;5.90;2.28;;;;;20.90;94478.00;;;;7392393;19;20912;-78
2022/10/31 08:54:08;;;;;;;7.60;2.47;;;;;21.10;94473.00;;;;7393566;19;20152;-78
2022/10/31 08:56:36;;;;;;;10.48;2.40;;;;;21.20;94471.00;;;;7394589;19;20125;-78
2022/10/31 08:59:03;;;;;;;10.98;2.50;;;;;21.80;94461.00;;;;7392853;19;20149;-78
2022/10/31 09:01:37;;;;;;;6.45;2.53;;;;;22.40;94458.00;;;;7392731;19;20153;-77
2022/10/31 09:04:12;;;;;;;4.68;2.20;;;;;22.60;94461.00;;;;7391427;19;20229;-76
2022/10/31 09:06:53;;;;;;;9.15;2.75;;;;;22.90;94458.00;;;;7391062;19;20535;-78
2022/10/31 09:09:47;;;;;;;5.28;2.30;;;;;22.80;94462.00;;;;7388944;19;20489;-77
2022/10/31 09:12:24;;;;;;;6.07;2.45;;;;;22.80;94466.00;;;;7395043;19;20738;-77
2022/10/31 09:14:51;;;;;;;11.07;2.72;;;;;23.10;94465.00;;;;7391562;19;20166;-78
2022/10/31 09:17:19;;;;;;;9.18;2.40;;;;;22.80;94471.00;;;;7394210;19;20149;-78
2022/10/31 09:19:53;;;;;;;9.63;2.95;;;;;22.70;94472.00;;;;7393885;19;20220;-79
2022/10/31 09:22:21;;;;;;;7.45;2.55;;;;;23.10;94473.00;;;;7393011;19;20488;-75
2022/10/31 09:24:49;;;;;;;8.32;2.80;;;;;23.50;94472.00;;;;7392256;19;20157;-76
2022/10/31 09:27:22;;;;;;;6.35;2.67;;;;;22.10;94474.00;;;;7392302;19;20224;-78
2022/10/31 09:29:50;;;;;;;10.07;3.00;;;;;22.00;94474.00;;;;7393525;19;20537;-77
2022/10/31 09:32:18;;;;;;;6.07;2.40;;;;;21.90;94480.00;;;;7390145;19;20145;-76
2022/10/31 09:34:52;;;;;;;7.45;2.70;;;;;22.00;94480.00;;;;7389740;19;20139;-78
2022/10/31 09:37:20;;;;;;;8.35;2.38;;;;;22.00;94474.00;;;;7390656;19;20152;-75
2022/10/31 09:39:48;;;;;;;7.10;2.45;;;;;22.20;94480.00;;;;7395684;19;20156;-78
2022/10/31 09:42:33;;;;;;;3.58;2.05;;;;;22.30;94472.00;;;;7389725;19;20152;-78
2022/10/31 09:45:30;;;;;;;6.75;2.58;;;;;23.00;94474.00;;;;7392584;19;20144;-77
2022/10/31 09:48:23;;;;;;;9.70;2.45;;;;;22.90;94473.00;;;;7392926;19;20603;-79
2022/10/31 09:51:11;;;;;;;8.20;2.80;;;;;22.30;94484.00;;;;7393955;19;20157;-79
2022/10/31 09:54:02;;;;;;;6.32;2.55;;;;;22.60;94465.00;;;;7393044;19;20136;-78
2022/10/31 09:56:31;;;;;;;6.47;2.47;;;;;22.60;94471.00;;;;7387882;19;20180;-77
2022/10/31 09:59:12;;;;;;;7.15;2.47;;;;;23.20;94465.00;;;;7394044;19;20128;-77
2022/10/31 10:01:45;;;;;;;7.88;2.75;;;;;23.20;94456.00;;;;7393881;19;20196;-77
2022/10/31 10:04:44;;;;;;;7.25;2.35;;;;;22.80;94457.00;;;;7386903;19;20134;-77
2022/10/31 10:07:32;;;;;;;8.48;2.40;;;;;22.60;94457.00;;;;7391374;19;20148;-78
2022/10/31 10:10:34;;;;;;;6.13;2.58;;;;;22.40;94459.00;;;;7392488;19;20152;-77
2022/10/31 10:13:45;;;;;;;10.10;2.30;;;;;22.50;94462.00;;;;7388518;19;20133;-75
2022/10/31 10:16:35;;;;;;;5.07;2.33;;;;;22.70;94459.00;;;;7389614;19;20608;-76
2022/10/31 10:19:02;;;;;;;7.80;2.30;;;;;22.40;94462.00;;;;7390721;19;20247;-76
2022/10/31 10:21:54;;;;;;;6.97;2.13;;;;;22.50;94453.00;;;;7391514;19;20156;-77
2022/10/31 10:24:47;;;;;;;10.00;2.38;;;;;22.00;94463.00;;;;7390605;19;20184;-78
2022/10/31 10:27:45;;;;;;;7.10;2.38;;;;;22.40;94455.00;;;;7391447;19;20145;-76
2022/10/31 10:30:21;;;;;;;10.82;2.78;;;;;22.00;94458.00;;;;7395521;19;20643;-76
2022/10/31 10:33:19;;;;;;;6.38;2.15;;;;;22.50;94454.00;;;;7392166;19;20648;-76
2022/10/31 10:35:59;;;;;;;7.13;2.22;;;;;22.80;94451.00;;;;7391350;19;20159;-77
2022/10/31 10:38:39;;;;;;;4.82;2.10;;;;;23.10;94443.00;;;;7388925;19;20714;-78
2022/10/31 10:41:16;;;;;;;6.38;2.58;;;;;22.60;94438.00;;;;7389367;19;20117;-78
2022/10/31 10:43:51;;;;;;;7.60;2.42;;;;;22.70;94446.00;;;;7390844;19;20156;-79
2022/10/31 10:49:37;;;;;;;9.15;2.25;;;;;22.50;94433.00;;;;7389274;19;20149;-79
2022/10/31 10:52:30;;;;;;;11.13;2.90;;;;;22.60;94426.00;;;;7390523;19;20185;-78
2022/10/31 10:55:17;;;;;;;6.55;2.40;;;;;22.50;94414.00;;;;7393102;19;20454;-79
2022/10/31 10:58:08;;;;;;;10.75;2.67;;;;;22.50;94410.00;;;;7391458;19;20137;-77
2022/10/31 11:00:49;;;;;;;10.32;2.78;;;;;22.50;94412.00;;;;7388806;19;20182;-77
2022/10/31 11:03:18;;;;;;;5.95;2.40;;;;;22.10;94420.00;;;;7387883;19;20159;-78
2022/10/31 11:06:01;;;;;;;9.43;2.58;;;;;22.00;94423.00;;;;7386517;19;20159;-77
2022/10/31 11:08:34;;;;;;;8.90;2.13;;;;;22.10;94424.00;;;;7387273;19;20145;-76
2022/10/31 11:11:17;;;;;;;5.90;2.13;;;;;21.90;94416.00;;;;7391583;19;20129;-79
2022/10/31 11:13:48;;;;;;;5.47;2.10;;;;;21.90;94419.00;;;;7389824;19;20129;-79
2022/10/31 11:16:51;;;;;;;4.40;2.35;;;;;21.80;94405.00;;;;7388750;19;20208;-77
2022/10/31 11:19:23;;;;;;;10.38;2.40;;;;;22.10;94407.00;;;;7390186;19;20532;-76
2022/10/31 11:22:08;;;;;;;8.18;2.72;;;;;21.90;94413.00;;;;7392215;19;20140;-77
2022/10/31 11:24:41;;;;;;;8.82;2.42;;;;;22.00;94408.00;;;;7389607;19;20140;-77
2022/10/31 11:27:25;;;;;;;7.65;2.58;;;;;22.10;94406.00;;;;7397576;19;20160;-77
2022/10/31 11:30:03;;;;;;;8.45;2.45;;;;;22.10;94402.00;;;;7398950;19;20148;-77
2022/10/31 11:32:48;;;;;;;5.43;2.20;;;;;22.00;94399.00;;;;7395685;19;20176;-77
2022/10/31 11:35:19;;;;;;;7.50;2.20;;;;;22.10;94398.00;;;;7396049;19;20153;-76
2022/10/31 11:37:58;;;;;;;5.68;2.22;;;;;22.00;94404.00;;;;7400083;19;20192;-78
2022/10/31 11:40:27;;;;;;;4.88;2.33;;;;;22.10;94395.00;;;;7394813;19;20560;-77
2022/10/31 11:43:01;;;;;;;7.22;2.63;;;;;22.20;94406.00;;;;7396401;19;20635;-78
2022/10/31 11:45:33;;;;;;;8.73;2.47;;;;;22.30;94399.00;;;;7398528;19;20127;-78
2022/10/31 11:48:14;;;;;;;7.07;2.55;;;;;21.90;94397.00;;;;7395414;19;20136;-76
2022/10/31 11:50:57;;;;;;;6.85;2.70;;;;;22.10;94383.00;;;;7397295;19;20132;-76
2022/10/31 11:53:30;;;;;;;9.13;2.40;;;;;22.00;94382.00;;;;7399057;19;20648;-77
2022/10/31 11:56:16;;;;;;;9.27;2.53;;;;;22.00;94377.00;;;;7399196;19;20468;-77
2022/10/31 11:58:54;;;;;;;9.43;2.70;;;;;22.70;94365.00;;;;7396962;19;20500;-77
2022/10/31 12:01:30;;;;;;;11.27;2.38;;;;;23.10;94360.00;;;;7395606;19;20483;-78
2022/10/31 12:04:04;;;;;;;6.47;2.70;;;;;23.70;94350.00;;;;7396061;19;20983;-78
2022/10/31 12:06:47;;;;;;;6.95;2.78;;;;;24.10;94344.00;;;;7391007;19;20151;-78
2022/10/31 12:09:22;;;;;;;6.75;2.47;;;;;24.40;94341.00;;;;7395291;19;20124;-78
2022/10/31 12:12:21;;;;;;;7.78;2.38;;;;;23.30;94360.00;;;;7396013;19;20552;-78
2022/10/31 12:15:08;;;;;;;4.05;2.25;;;;;22.50;94360.00;;;;7396083;19;20477;-77
2022/10/31 12:18:15;;;;;;;7.70;2.50;;;;;21.80;94364.00;;;;7395204;19;20611;-77
2022/10/31 12:21:35;;;;;;;5.07;2.38;;;;;21.40;94361.00;;;;7395843;19;20137;-76
2022/10/31 12:24:39;;;;;;;8.68;2.63;;;;;21.10;94366.00;;;;7395481;19;20466;-79
2022/10/31 12:27:21;;;;;;;9.57;2.80;;;;;21.00;94359.00;;;;7394055;19;20634;-78
2022/10/31 12:30:20;;;;;;;10.18;2.35;;;;;20.70;94352.00;;;;7394007;19;20137;-78
2022/10/31 12:33:14;;;;;;;5.57;2.30;;;;;20.70;94348.00;;;;7394140;19;20156;-77
2022/10/31 12:36:07;;;;;;;4.72;2.15;;;;;20.60;94334.00;;;;7392716;19;20152;-77
2022/10/31 12:39:11;;;;;;;7.55;3.20;;;;;20.30;94327.00;;;;7393279;19;20618;-78
2022/10/31 12:41:58;;;;;;;6.28;2.75;;;;;20.30;94323.00;;;;7388039;19;20132;-78
2022/10/31 12:44:44;;;;;;;6.22;2.70;;;;;20.10;94327.00;;;;7394002;19;20470;-77
2022/10/31 12:47:27;;;;;;;6.07;2.92;;;;;19.70;94320.00;;;;7394283;19;20129;-78
2022/10/31 12:50:13;;;;;;;9.40;3.17;;;;;19.60;94318.00;;;;7392727;19;20486;-77
2022/10/31 12:53:26;;;;;;;6.47;2.97;;;;;19.50;94313.00;;;;7392898;19;20575;-77
2022/10/31 12:56:18;;;;;;;8.55;3.30;;;;;19.30;94308.00;;;;7391356;19;20148;-77
2022/10/31 12:59:31;;;;;;;9.60;3.28;;;;;19.30;94301.00;;;;7391967;19;20611;-76
2022/10/31 13:02:12;;;;;;;8.05;3.35;;;;;19.60;94297.00;;;;7391214;19;20591;-76
2022/10/31 13:05:05;;;;;;;4.35;2.50;;;;;19.80;94287.00;;;;7389949;19;20172;-76
2022/10/31 13:07:57;;;;;;;4.55;2.72;;;;;22.00;94273.00;;;;7392865;19;20143;-76